sensor_id;sensor_type;location;lat;lon;timestamp;temperature;humidity
74155;DHT22;62509;46.248;6.018;2023-08-17T00:04:50;20.30;52.90
74155;DHT22;62509;46.248;6.018;2023-08-17T00:09:53;20.20;53.10
74155;DHT22;62509;46.248;6.018;2023-08-17T00:14:56;20.10;54.40
74155;DHT22;62509;46.248;6.018;2023-08-17T00:20:01;20.10;54.00
74155;DHT22;62509;46.248;6.018;2023-08-17T00:25:07;20.00;53.80
74155;DHT22;62509;46.248;6.018;2023-08-17T00:30:11;19.90;54.40
74155;DHT22;62509;46.248;6.018;2023-08-17T00:35:16;20.00;53.40
74155;DHT22;62509;46.248;6.018;2023-08-17T00:40:19;19.50;55.40
74155;DHT22;62509;46.248;6.018;2023-08-17T00:45:23;19.30;56.90
74155;DHT22;62509;46.248;6.018;2023-08-17T00:50:28;19.10;56.60
74155;DHT22;62509;46.248;6.018;2023-08-17T00:55:32;19.10;56.80
74155;DHT22;62509;46.248;6.018;2023-08-17T01:00:37;19.10;55.90
74155;DHT22;62509;46.248;6.018;2023-08-17T01:05:41;19.30;55.70
74155;DHT22;62509;46.248;6.018;2023-08-17T01:10:47;19.10;55.80
74155;DHT22;62509;46.248;6.018;2023-08-17T01:15:55;19.30;55.20
74155;DHT22;62509;46.248;6.018;2023-08-17T01:21:01;18.90;56.60
74155;DHT22;62509;46.248;6.018;2023-08-17T01:26:06;18.80;57.40
74155;DHT22;62509;46.248;6.018;2023-08-17T01:31:11;19.00;55.80
74155;DHT22;62509;46.248;6.018;2023-08-17T01:36:18;19.10;55.50
74155;DHT22;62509;46.248;6.018;2023-08-17T01:41:25;19.10;56.00
74155;DHT22;62509;46.248;6.018;2023-08-17T01:46:30;19.20;55.90
74155;DHT22;62509;46.248;6.018;2023-08-17T01:51:34;19.10;56.60
74155;DHT22;62509;46.248;6.018;2023-08-17T01:56:39;18.60;58.60
74155;DHT22;62509;46.248;6.018;2023-08-17T02:01:42;18.70;57.90
74155;DHT22;62509;46.248;6.018;2023-08-17T02:06:45;18.70;57.80
74155;DHT22;62509;46.248;6.018;2023-08-17T02:11:50;18.60;58.00
74155;DHT22;62509;46.248;6.018;2023-08-17T02:16:53;18.40;59.10
74155;DHT22;62509;46.248;6.018;2023-08-17T02:21:56;18.60;58.20
74155;DHT22;62509;46.248;6.018;2023-08-17T02:27:01;18.70;58.60
74155;DHT22;62509;46.248;6.018;2023-08-17T02:32:05;18.70;57.10
74155;DHT22;62509;46.248;6.018;2023-08-17T02:37:08;18.70;57.10
74155;DHT22;62509;46.248;6.018;2023-08-17T02:42:13;19.30;55.60
74155;DHT22;62509;46.248;6.018;2023-08-17T02:47:16;19.10;53.40
74155;DHT22;62509;46.248;6.018;2023-08-17T02:52:19;19.00;53.80
74155;DHT22;62509;46.248;6.018;2023-08-17T02:57:24;19.20;53.00
74155;DHT22;62509;46.248;6.018;2023-08-17T03:02:27;19.10;53.50
74155;DHT22;62509;46.248;6.018;2023-08-17T03:07:30;18.60;56.30
74155;DHT22;62509;46.248;6.018;2023-08-17T03:12:35;18.60;56.10
74155;DHT22;62509;46.248;6.018;2023-08-17T03:17:39;18.30;58.30
74155;DHT22;62509;46.248;6.018;2023-08-17T03:22:43;18.20;58.90
74155;DHT22;62509;46.248;6.018;2023-08-17T03:27:47;18.30;57.80
74155;DHT22;62509;46.248;6.018;2023-08-17T03:32:51;18.00;58.90
74155;DHT22;62509;46.248;6.018;2023-08-17T03:37:54;18.10;60.10
74155;DHT22;62509;46.248;6.018;2023-08-17T03:42:58;18.00;59.60
74155;DHT22;62509;46.248;6.018;2023-08-17T03:48:02;17.80;62.50
74155;DHT22;62509;46.248;6.018;2023-08-17T03:53:06;17.70;63.60
74155;DHT22;62509;46.248;6.018;2023-08-17T03:58:10;17.80;64.30
74155;DHT22;62509;46.248;6.018;2023-08-17T04:03:13;18.20;64.10
74155;DHT22;62509;46.248;6.018;2023-08-17T04:08:17;18.10;64.00
74155;DHT22;62509;46.248;6.018;2023-08-17T04:13:21;17.80;65.70
74155;DHT22;62509;46.248;6.018;2023-08-17T04:18:25;17.70;65.60
74155;DHT22;62509;46.248;6.018;2023-08-17T04:23:28;18.10;65.60
74155;DHT22;62509;46.248;6.018;2023-08-17T04:28:32;18.00;65.30
74155;DHT22;62509;46.248;6.018;2023-08-17T04:33:36;18.10;65.70
74155;DHT22;62509;46.248;6.018;2023-08-17T04:38:39;18.10;64.70
74155;DHT22;62509;46.248;6.018;2023-08-17T04:43:44;17.90;63.00
74155;DHT22;62509;46.248;6.018;2023-08-17T04:48:48;17.10;68.70
74155;DHT22;62509;46.248;6.018;2023-08-17T04:53:51;17.30;69.80
74155;DHT22;62509;46.248;6.018;2023-08-17T04:58:56;17.60;67.80
74155;DHT22;62509;46.248;6.018;2023-08-17T05:03:59;17.70;67.60
74155;DHT22;62509;46.248;6.018;2023-08-17T05:09:03;17.70;67.80
74155;DHT22;62509;46.248;6.018;2023-08-17T05:14:09;17.90;64.90
74155;DHT22;62509;46.248;6.018;2023-08-17T05:19:13;18.30;63.80
74155;DHT22;62509;46.248;6.018;2023-08-17T05:24:16;18.50;60.60
74155;DHT22;62509;46.248;6.018;2023-08-17T05:29:21;18.80;59.90
74155;DHT22;62509;46.248;6.018;2023-08-17T05:34:24;19.20;58.00
74155;DHT22;62509;46.248;6.018;2023-08-17T05:39:27;19.20;57.50
74155;DHT22;62509;46.248;6.018;2023-08-17T05:44:32;19.30;58.40
74155;DHT22;62509;46.248;6.018;2023-08-17T05:49:35;19.20;59.50
74155;DHT22;62509;46.248;6.018;2023-08-17T05:54:39;19.20;58.80
74155;DHT22;62509;46.248;6.018;2023-08-17T05:59:44;19.30;59.10
74155;DHT22;62509;46.248;6.018;2023-08-17T06:04:47;19.10;58.70
74155;DHT22;62509;46.248;6.018;2023-08-17T06:09:50;19.20;61.40
74155;DHT22;62509;46.248;6.018;2023-08-17T06:14:55;19.20;63.50
74155;DHT22;62509;46.248;6.018;2023-08-17T06:19:59;19.30;62.60
74155;DHT22;62509;46.248;6.018;2023-08-17T06:25:04;19.50;63.90
74155;DHT22;62509;46.248;6.018;2023-08-17T06:30:11;19.70;65.10
74155;DHT22;62509;46.248;6.018;2023-08-17T06:35:15;19.70;64.20
74155;DHT22;62509;46.248;6.018;2023-08-17T06:40:18;19.90;61.20
74155;DHT22;62509;46.248;6.018;2023-08-17T06:45:23;20.20;60.50
74155;DHT22;62509;46.248;6.018;2023-08-17T06:50:26;20.80;58.30
74155;DHT22;62509;46.248;6.018;2023-08-17T06:55:30;20.90;60.30
74155;DHT22;62509;46.248;6.018;2023-08-17T07:00:35;20.80;60.40
74155;DHT22;62509;46.248;6.018;2023-08-17T07:05:40;20.60;58.80
74155;DHT22;62509;46.248;6.018;2023-08-17T07:10:44;21.00;59.00
74155;DHT22;62509;46.248;6.018;2023-08-17T07:15:48;21.40;58.10
74155;DHT22;62509;46.248;6.018;2023-08-17T07:20:52;21.30;59.50
74155;DHT22;62509;46.248;6.018;2023-08-17T07:25:59;21.40;58.90
74155;DHT22;62509;46.248;6.018;2023-08-17T07:31:06;21.40;57.20
74155;DHT22;62509;46.248;6.018;2023-08-17T07:36:09;21.90;50.70
74155;DHT22;62509;46.248;6.018;2023-08-17T07:41:12;22.40;48.80
74155;DHT22;62509;46.248;6.018;2023-08-17T07:46:17;22.80;48.50
74155;DHT22;62509;46.248;6.018;2023-08-17T07:51:21;23.10;49.10
74155;DHT22;62509;46.248;6.018;2023-08-17T07:56:24;22.80;51.10
74155;DHT22;62509;46.248;6.018;2023-08-17T08:01:29;23.00;50.80
74155;DHT22;62509;46.248;6.018;2023-08-17T08:06:32;23.20;49.00
74155;DHT22;62509;46.248;6.018;2023-08-17T08:11:35;23.10;46.80
74155;DHT22;62509;46.248;6.018;2023-08-17T08:16:40;23.70;45.20
74155;DHT22;62509;46.248;6.018;2023-08-17T08:21:44;24.40;43.30
74155;DHT22;62509;46.248;6.018;2023-08-17T08:26:47;24.50;40.60
74155;DHT22;62509;46.248;6.018;2023-08-17T08:31:52;24.70;39.90
74155;DHT22;62509;46.248;6.018;2023-08-17T08:36:55;25.00;39.10
74155;DHT22;62509;46.248;6.018;2023-08-17T08:41:59;25.20;39.00
74155;DHT22;62509;46.248;6.018;2023-08-17T08:47:04;25.30;38.00
74155;DHT22;62509;46.248;6.018;2023-08-17T08:52:07;25.30;37.30
74155;DHT22;62509;46.248;6.018;2023-08-17T08:57:12;25.70;36.40
74155;DHT22;62509;46.248;6.018;2023-08-17T09:02:17;25.80;34.60
74155;DHT22;62509;46.248;6.018;2023-08-17T09:07:21;26.20;31.10
74155;DHT22;62509;46.248;6.018;2023-08-17T09:12:25;26.20;32.00
74155;DHT22;62509;46.248;6.018;2023-08-17T09:17:43;26.40;31.80
74155;DHT22;62509;46.248;6.018;2023-08-17T09:22:46;27.00;30.00
74155;DHT22;62509;46.248;6.018;2023-08-17T09:27:54;27.20;30.70
74155;DHT22;62509;46.248;6.018;2023-08-17T09:33:03;27.60;29.80
74155;DHT22;62509;46.248;6.018;2023-08-17T09:38:06;26.90;29.40
74155;DHT22;62509;46.248;6.018;2023-08-17T09:43:10;27.00;29.20
74155;DHT22;62509;46.248;6.018;2023-08-17T09:48:16;27.20;28.90
74155;DHT22;62509;46.248;6.018;2023-08-17T09:53:20;27.30;29.80
74155;DHT22;62509;46.248;6.018;2023-08-17T09:58:23;27.20;29.60
74155;DHT22;62509;46.248;6.018;2023-08-17T10:03:34;27.50;27.70
74155;DHT22;62509;46.248;6.018;2023-08-17T10:08:39;27.90;26.80
74155;DHT22;62509;46.248;6.018;2023-08-17T10:13:47;28.00;26.80
74155;DHT22;62509;46.248;6.018;2023-08-17T10:18:57;28.00;26.00
74155;DHT22;62509;46.248;6.018;2023-08-17T10:24:04;28.00;26.70
74155;DHT22;62509;46.248;6.018;2023-08-17T10:29:09;27.70;26.60
74155;DHT22;62509;46.248;6.018;2023-08-17T10:34:18;27.60;27.00
74155;DHT22;62509;46.248;6.018;2023-08-17T10:39:22;27.60;27.30
74155;DHT22;62509;46.248;6.018;2023-08-17T10:44:40;27.70;27.60
74155;DHT22;62509;46.248;6.018;2023-08-17T10:49:45;27.80;27.30
74155;DHT22;62509;46.248;6.018;2023-08-17T10:54:48;27.70;27.50
74155;DHT22;62509;46.248;6.018;2023-08-17T11:05:35;27.80;29.10
74155;DHT22;62509;46.248;6.018;2023-08-17T11:10:40;27.80;29.90
74155;DHT22;62509;46.248;6.018;2023-08-17T11:15:48;27.70;30.00
74155;DHT22;62509;46.248;6.018;2023-08-17T11:20:54;28.10;29.50
74155;DHT22;62509;46.248;6.018;2023-08-17T11:25:57;28.30;29.30
74155;DHT22;62509;46.248;6.018;2023-08-17T11:31:01;28.00;28.90
74155;DHT22;62509;46.248;6.018;2023-08-17T11:36:07;28.60;28.10
74155;DHT22;62509;46.248;6.018;2023-08-17T11:41:12;28.80;27.60
74155;DHT22;62509;46.248;6.018;2023-08-17T11:46:20;28.70;27.50
74155;DHT22;62509;46.248;6.018;2023-08-17T11:51:31;29.00;27.40
74155;DHT22;62509;46.248;6.018;2023-08-17T11:56:34;29.40;26.00
74155;DHT22;62509;46.248;6.018;2023-08-17T12:01:37;29.50;26.00
74155;DHT22;62509;46.248;6.018;2023-08-17T12:06:44;29.80;25.60
74155;DHT22;62509;46.248;6.018;2023-08-17T12:11:47;29.80;25.30
74155;DHT22;62509;46.248;6.018;2023-08-17T12:16:51;29.70;25.00
74155;DHT22;62509;46.248;6.018;2023-08-17T12:21:56;29.50;25.10
74155;DHT22;62509;46.248;6.018;2023-08-17T12:27:02;29.60;24.70
74155;DHT22;62509;46.248;6.018;2023-08-17T12:32:06;29.60;24.80
74155;DHT22;62509;46.248;6.018;2023-08-17T12:37:11;29.40;24.80
74155;DHT22;62509;46.248;6.018;2023-08-17T12:42:15;29.50;24.40
74155;DHT22;62509;46.248;6.018;2023-08-17T12:47:19;29.90;24.20
74155;DHT22;62509;46.248;6.018;2023-08-17T12:52:24;30.10;23.50
74155;DHT22;62509;46.248;6.018;2023-08-17T12:57:28;30.20;23.40
74155;DHT22;62509;46.248;6.018;2023-08-17T13:02:31;30.20;23.20
74155;DHT22;62509;46.248;6.018;2023-08-17T13:07:36;30.00;23.10
74155;DHT22;62509;46.248;6.018;2023-08-17T13:12:40;30.00;22.90
74155;DHT22;62509;46.248;6.018;2023-08-17T13:17:43;30.00;23.20
74155;DHT22;62509;46.248;6.018;2023-08-17T13:22:48;30.40;22.00
74155;DHT22;62509;46.248;6.018;2023-08-17T13:27:51;30.40;22.40
74155;DHT22;62509;46.248;6.018;2023-08-17T13:32:55;30.20;24.10
74155;DHT22;62509;46.248;6.018;2023-08-17T13:38:00;30.20;23.90
74155;DHT22;62509;46.248;6.018;2023-08-17T13:43:06;30.10;24.50
74155;DHT22;62509;46.248;6.018;2023-08-17T13:48:13;30.00;24.50
74155;DHT22;62509;46.248;6.018;2023-08-17T13:53:19;29.90;24.10
74155;DHT22;62509;46.248;6.018;2023-08-17T13:58:23;30.00;23.40
74155;DHT22;62509;46.248;6.018;2023-08-17T14:03:26;30.00;23.50
74155;DHT22;62509;46.248;6.018;2023-08-17T14:08:31;29.90;23.20
74155;DHT22;62509;46.248;6.018;2023-08-17T14:13:34;29.90;23.30
74155;DHT22;62509;46.248;6.018;2023-08-17T14:18:38;29.80;23.80
74155;DHT22;62509;46.248;6.018;2023-08-17T14:23:42;29.70;23.70
74155;DHT22;62509;46.248;6.018;2023-08-17T14:28:46;29.80;22.90
74155;DHT22;62509;46.248;6.018;2023-08-17T14:33:49;29.90;22.80
74155;DHT22;62509;46.248;6.018;2023-08-17T14:38:54;30.10;22.80
74155;DHT22;62509;46.248;6.018;2023-08-17T14:43:57;30.20;23.20
74155;DHT22;62509;46.248;6.018;2023-08-17T14:49:03;30.30;22.90
74155;DHT22;62509;46.248;6.018;2023-08-17T14:54:08;30.40;22.80
74155;DHT22;62509;46.248;6.018;2023-08-17T14:59:13;30.70;22.20
74155;DHT22;62509;46.248;6.018;2023-08-17T15:04:16;30.70;21.80
74155;DHT22;62509;46.248;6.018;2023-08-17T15:09:21;30.80;21.60
74155;DHT22;62509;46.248;6.018;2023-08-17T15:14:24;30.80;21.70
74155;DHT22;62509;46.248;6.018;2023-08-17T15:19:27;30.80;21.60
74155;DHT22;62509;46.248;6.018;2023-08-17T15:24:40;31.10;21.20
74155;DHT22;62509;46.248;6.018;2023-08-17T15:29:45;31.10;21.50
74155;DHT22;62509;46.248;6.018;2023-08-17T15:34:48;31.20;21.20
74155;DHT22;62509;46.248;6.018;2023-08-17T15:39:55;31.00;21.30
74155;DHT22;62509;46.248;6.018;2023-08-17T15:44:58;31.30;21.00
74155;DHT22;62509;46.248;6.018;2023-08-17T15:50:01;31.30;20.90
74155;DHT22;62509;46.248;6.018;2023-08-17T15:55:07;31.20;20.90
74155;DHT22;62509;46.248;6.018;2023-08-17T16:00:10;31.10;20.70
74155;DHT22;62509;46.248;6.018;2023-08-17T16:05:14;31.20;20.50
74155;DHT22;62509;46.248;6.018;2023-08-17T16:10:19;31.40;20.70
74155;DHT22;62509;46.248;6.018;2023-08-17T16:15:22;31.60;20.00
74155;DHT22;62509;46.248;6.018;2023-08-17T16:20:26;31.70;18.20
74155;DHT22;62509;46.248;6.018;2023-08-17T16:25:32;31.90;18.90
74155;DHT22;62509;46.248;6.018;2023-08-17T16:30:36;31.90;18.40
74155;DHT22;62509;46.248;6.018;2023-08-17T16:35:41;32.00;17.60
74155;DHT22;62509;46.248;6.018;2023-08-17T16:40:46;31.50;21.00
74155;DHT22;62509;46.248;6.018;2023-08-17T16:45:51;31.10;21.40
74155;DHT22;62509;46.248;6.018;2023-08-17T16:50:54;30.80;21.90
74155;DHT22;62509;46.248;6.018;2023-08-17T16:55:59;30.70;22.40
74155;DHT22;62509;46.248;6.018;2023-08-17T17:01:03;30.70;22.70
74155;DHT22;62509;46.248;6.018;2023-08-17T17:06:15;30.60;23.30
74155;DHT22;62509;46.248;6.018;2023-08-17T17:11:22;30.40;22.80
74155;DHT22;62509;46.248;6.018;2023-08-17T17:16:25;30.30;22.70
74155;DHT22;62509;46.248;6.018;2023-08-17T17:21:28;30.30;23.30
74155;DHT22;62509;46.248;6.018;2023-08-17T17:26:33;30.20;23.50
74155;DHT22;62509;46.248;6.018;2023-08-17T17:31:38;30.00;23.70
74155;DHT22;62509;46.248;6.018;2023-08-17T17:36:42;29.80;24.30
74155;DHT22;62509;46.248;6.018;2023-08-17T17:41:46;29.70;24.80
74155;DHT22;62509;46.248;6.018;2023-08-17T17:46:50;29.50;25.00
74155;DHT22;62509;46.248;6.018;2023-08-17T17:51:54;29.40;25.10
74155;DHT22;62509;46.248;6.018;2023-08-17T17:56:59;29.10;25.40
74155;DHT22;62509;46.248;6.018;2023-08-17T18:02:03;29.00;25.90
74155;DHT22;62509;46.248;6.018;2023-08-17T18:07:07;28.70;26.70
74155;DHT22;62509;46.248;6.018;2023-08-17T18:12:12;28.40;27.70
74155;DHT22;62509;46.248;6.018;2023-08-17T18:17:16;28.10;28.70
74155;DHT22;62509;46.248;6.018;2023-08-17T18:22:20;27.90;29.30
74155;DHT22;62509;46.248;6.018;2023-08-17T18:27:25;27.60;30.30
74155;DHT22;62509;46.248;6.018;2023-08-17T18:32:29;27.30;31.60
74155;DHT22;62509;46.248;6.018;2023-08-17T18:37:34;27.10;31.70
74155;DHT22;62509;46.248;6.018;2023-08-17T18:42:39;26.90;32.90
74155;DHT22;62509;46.248;6.018;2023-08-17T18:47:42;26.60;33.10
74155;DHT22;62509;46.248;6.018;2023-08-17T18:52:48;26.40;34.00
74155;DHT22;62509;46.248;6.018;2023-08-17T18:57:53;26.20;34.50
74155;DHT22;62509;46.248;6.018;2023-08-17T19:02:57;26.00;35.60
74155;DHT22;62509;46.248;6.018;2023-08-17T19:08:00;25.70;36.20
74155;DHT22;62509;46.248;6.018;2023-08-17T19:13:05;25.50;36.90
74155;DHT22;62509;46.248;6.018;2023-08-17T19:18:09;25.30;37.90
74155;DHT22;62509;46.248;6.018;2023-08-17T19:23:13;25.20;38.70
74155;DHT22;62509;46.248;6.018;2023-08-17T19:28:18;25.10;39.00
74155;DHT22;62509;46.248;6.018;2023-08-17T19:33:21;25.00;39.10
74155;DHT22;62509;46.248;6.018;2023-08-17T19:38:24;25.10;38.50
74155;DHT22;62509;46.248;6.018;2023-08-17T19:43:29;25.00;39.90
74155;DHT22;62509;46.248;6.018;2023-08-17T19:48:32;24.80;39.60
74155;DHT22;62509;46.248;6.018;2023-08-17T19:53:35;24.70;39.80
74155;DHT22;62509;46.248;6.018;2023-08-17T19:58:40;24.50;41.80
74155;DHT22;62509;46.248;6.018;2023-08-17T20:03:43;24.10;43.20
74155;DHT22;62509;46.248;6.018;2023-08-17T20:08:50;23.90;44.10
74155;DHT22;62509;46.248;6.018;2023-08-17T20:13:54;23.80;43.00
74155;DHT22;62509;46.248;6.018;2023-08-17T20:18:58;23.70;42.10
74155;DHT22;62509;46.248;6.018;2023-08-17T20:24:01;23.70;42.90
74155;DHT22;62509;46.248;6.018;2023-08-17T20:29:07;23.70;42.70
74155;DHT22;62509;46.248;6.018;2023-08-17T20:34:12;23.60;42.50
74155;DHT22;62509;46.248;6.018;2023-08-17T20:39:16;23.40;42.40
74155;DHT22;62509;46.248;6.018;2023-08-17T20:44:20;23.20;43.60
74155;DHT22;62509;46.248;6.018;2023-08-17T20:49:23;23.10;44.50
74155;DHT22;62509;46.248;6.018;2023-08-17T20:54:27;23.00;44.20
74155;DHT22;62509;46.248;6.018;2023-08-17T20:59:31;23.00;43.90
74155;DHT22;62509;46.248;6.018;2023-08-17T21:04:35;23.00;44.50
74155;DHT22;62509;46.248;6.018;2023-08-17T21:09:38;22.90;45.30
74155;DHT22;62509;46.248;6.018;2023-08-17T21:14:43;22.60;46.60
74155;DHT22;62509;46.248;6.018;2023-08-17T21:19:48;22.40;47.80
74155;DHT22;62509;46.248;6.018;2023-08-17T21:24:52;22.20;47.50
74155;DHT22;62509;46.248;6.018;2023-08-17T21:29:57;22.00;49.10
74155;DHT22;62509;46.248;6.018;2023-08-17T21:35:00;21.80;49.60
74155;DHT22;62509;46.248;6.018;2023-08-17T21:40:04;21.80;49.70
74155;DHT22;62509;46.248;6.018;2023-08-17T21:45:09;21.50;50.70
74155;DHT22;62509;46.248;6.018;2023-08-17T21:50:13;21.30;50.80
74155;DHT22;62509;46.248;6.018;2023-08-17T21:55:16;21.50;50.50
74155;DHT22;62509;46.248;6.018;2023-08-17T22:00:21;21.40;51.40
74155;DHT22;62509;46.248;6.018;2023-08-17T22:05:24;21.60;50.70
74155;DHT22;62509;46.248;6.018;2023-08-17T22:10:27;21.60;50.40
74155;DHT22;62509;46.248;6.018;2023-08-17T22:15:32;21.40;50.90
74155;DHT22;62509;46.248;6.018;2023-08-17T22:20:37;21.20;51.30
74155;DHT22;62509;46.248;6.018;2023-08-17T22:25:41;21.20;52.20
74155;DHT22;62509;46.248;6.018;2023-08-17T22:30:46;21.10;52.70
74155;DHT22;62509;46.248;6.018;2023-08-17T22:35:49;20.90;53.00
74155;DHT22;62509;46.248;6.018;2023-08-17T22:40:52;20.90;53.20
74155;DHT22;62509;46.248;6.018;2023-08-17T22:45:57;20.50;54.80
74155;DHT22;62509;46.248;6.018;2023-08-17T22:51:00;20.60;54.50
74155;DHT22;62509;46.248;6.018;2023-08-17T22:56:05;20.60;54.50
74155;DHT22;62509;46.248;6.018;2023-08-17T23:01:09;20.40;55.90
74155;DHT22;62509;46.248;6.018;2023-08-17T23:06:13;20.00;57.00
74155;DHT22;62509;46.248;6.018;2023-08-17T23:11:16;20.00;56.80
74155;DHT22;62509;46.248;6.018;2023-08-17T23:16:21;19.70;57.20
74155;DHT22;62509;46.248;6.018;2023-08-17T23:21:24;19.80;55.90
74155;DHT22;62509;46.248;6.018;2023-08-17T23:26:28;20.00;55.40
74155;DHT22;62509;46.248;6.018;2023-08-17T23:31:33;20.20;54.70
74155;DHT22;62509;46.248;6.018;2023-08-17T23:36:37;20.20;54.30
74155;DHT22;62509;46.248;6.018;2023-08-17T23:41:40;20.10;54.90
74155;DHT22;62509;46.248;6.018;2023-08-17T23:46:45;19.90;56.00
74155;DHT22;62509;46.248;6.018;2023-08-17T23:51:49;19.80;56.90
74155;DHT22;62509;46.248;6.018;2023-08-17T23:56:52;19.60;57.50
